sensor_id;sensor_type;location;lat;lon;timestamp;pressure;altitude;pressure_sealevel;temperature;humidity
28167;BME280;15455;53.376;-6.262;2023-02-11T00:01:21;103309.56;;;7.43;100.00
28167;BME280;15455;53.376;-6.262;2023-02-11T00:04:06;103316.44;;;7.42;100.00
28167;BME280;15455;53.376;-6.262;2023-02-11T00:06:52;103326.03;;;7.43;100.00
28167;BME280;15455;53.376;-6.262;2023-02-11T00:09:39;103327.81;;;7.44;100.00
28167;BME280;15455;53.376;-6.262;2023-02-11T00:12:24;103323.50;;;7.45;100.00
28167;BME280;15455;53.376;-6.262;2023-02-11T00:15:10;103328.69;;;7.45;100.00
28167;BME280;15455;53.376;-6.262;2023-02-11T00:17:55;103318.22;;;7.43;100.00
28167;BME280;15455;53.376;-6.262;2023-02-11T00:20:41;103311.34;;;7.44;100.00
28167;BME280;15455;53.376;-6.262;2023-02-11T00:23:26;103309.56;;;7.43;100.00
28167;BME280;15455;53.376;-6.262;2023-02-11T00:26:14;103301.75;;;7.43;100.00
28167;BME280;15455;53.376;-6.262;2023-02-11T00:29:00;103306.97;;;7.43;100.00
28167;BME280;15455;53.376;-6.262;2023-02-11T00:31:48;103306.88;;;7.41;100.00
28167;BME280;15455;53.376;-6.262;2023-02-11T00:34:34;103308.50;;;7.39;100.00
28167;BME280;15455;53.376;-6.262;2023-02-11T00:37:21;103301.44;;;7.37;100.00
28167;BME280;15455;53.376;-6.262;2023-02-11T00:40:07;103305.56;;;7.33;100.00
28167;BME280;15455;53.376;-6.262;2023-02-11T00:42:52;103302.91;;;7.32;100.00
28167;BME280;15455;53.376;-6.262;2023-02-11T00:45:38;103303.72;;;7.30;100.00
28167;BME280;15455;53.376;-6.262;2023-02-11T00:48:23;103313.13;;;7.28;100.00
28167;BME280;15455;53.376;-6.262;2023-02-11T00:51:09;103313.94;;;7.27;100.00
28167;BME280;15455;53.376;-6.262;2023-02-11T00:53:54;103324.16;;;7.24;100.00
28167;BME280;15455;53.376;-6.262;2023-02-11T00:56:40;103330.16;;;7.23;100.00
28167;BME280;15455;53.376;-6.262;2023-02-11T00:59:26;103332.69;;;7.22;100.00
28167;BME280;15455;53.376;-6.262;2023-02-11T01:02:11;103331.81;;;7.21;100.00
28167;BME280;15455;53.376;-6.262;2023-02-11T01:04:57;103327.50;;;7.22;100.00
28167;BME280;15455;53.376;-6.262;2023-02-11T01:07:44;103330.09;;;7.22;100.00
28167;BME280;15455;53.376;-6.262;2023-02-11T01:10:30;103331.00;;;7.22;100.00
28167;BME280;15455;53.376;-6.262;2023-02-11T01:13:15;103325.72;;;7.21;100.00
28167;BME280;15455;53.376;-6.262;2023-02-11T01:16:00;103330.94;;;7.21;100.00
28167;BME280;15455;53.376;-6.262;2023-02-11T01:18:46;103330.00;;;7.20;100.00
28167;BME280;15455;53.376;-6.262;2023-02-11T01:21:34;103324.81;;;7.20;100.00
28167;BME280;15455;53.376;-6.262;2023-02-11T01:24:19;103329.22;;;7.21;100.00
28167;BME280;15455;53.376;-6.262;2023-02-11T01:27:05;103326.63;;;7.21;100.00
28167;BME280;15455;53.376;-6.262;2023-02-11T01:29:50;103327.56;;;7.23;100.00
28167;BME280;15455;53.376;-6.262;2023-02-11T01:32:38;103319.78;;;7.23;100.00
28167;BME280;15455;53.376;-6.262;2023-02-11T01:35:26;103312.97;;;7.25;100.00
28167;BME280;15455;53.376;-6.262;2023-02-11T01:38:15;103309.53;;;7.26;100.00
28167;BME280;15455;53.376;-6.262;2023-02-11T01:41:06;103300.88;;;7.26;100.00
28167;BME280;15455;53.376;-6.262;2023-02-11T01:43:52;103299.09;;;7.25;100.00
28167;BME280;15455;53.376;-6.262;2023-02-11T01:46:37;103290.31;;;7.23;100.00
28167;BME280;15455;53.376;-6.262;2023-02-11T01:49:32;103287.66;;;7.21;100.00
28167;BME280;15455;53.376;-6.262;2023-02-11T01:52:34;103292.63;;;7.17;100.00
28167;BME280;15455;53.376;-6.262;2023-02-11T01:55:21;103292.47;;;7.13;100.00
28167;BME280;15455;53.376;-6.262;2023-02-11T01:58:26;103283.66;;;7.11;100.00
28167;BME280;15455;53.376;-6.262;2023-02-11T02:01:17;103270.69;;;7.11;100.00
28167;BME280;15455;53.376;-6.262;2023-02-11T02:04:05;103282.63;;;7.08;100.00
28167;BME280;15455;53.376;-6.262;2023-02-11T02:06:58;103282.63;;;7.08;100.00
28167;BME280;15455;53.376;-6.262;2023-02-11T02:09:56;103280.91;;;7.08;100.00
28167;BME280;15455;53.376;-6.262;2023-02-11T02:12:42;103287.06;;;7.10;100.00
28167;BME280;15455;53.376;-6.262;2023-02-11T02:15:36;103281.16;;;7.13;100.00
28167;BME280;15455;53.376;-6.262;2023-02-11T02:19:04;103274.28;;;7.13;100.00
28167;BME280;15455;53.376;-6.262;2023-02-11T02:25:09;103269.16;;;7.15;100.00
28167;BME280;15455;53.376;-6.262;2023-02-11T02:28:23;103269.16;;;7.15;100.00
28167;BME280;15455;53.376;-6.262;2023-02-11T02:34:08;103275.09;;;7.12;100.00
28167;BME280;15455;53.376;-6.262;2023-02-11T02:37:08;103272.25;;;7.08;100.00
28167;BME280;15455;53.376;-6.262;2023-02-11T02:39:56;103278.81;;;7.01;100.00
28167;BME280;15455;53.376;-6.262;2023-02-11T02:42:44;103275.13;;;6.98;100.00
28167;BME280;15455;53.376;-6.262;2023-02-11T02:45:31;103278.41;;;6.93;100.00
28167;BME280;15455;53.376;-6.262;2023-02-11T02:48:32;103273.13;;;6.92;100.00
28167;BME280;15455;53.376;-6.262;2023-02-11T03:00:56;103253.06;;;7.06;100.00
28167;BME280;15455;53.376;-6.262;2023-02-11T03:07:19;103249.84;;;7.10;100.00
28167;BME280;15455;53.376;-6.262;2023-02-11T03:10:18;103249.09;;;7.12;100.00
28167;BME280;15455;53.376;-6.262;2023-02-11T03:13:06;103242.13;;;7.11;100.00
28167;BME280;15455;53.376;-6.262;2023-02-11T03:15:54;103242.19;;;7.13;100.00
28167;BME280;15455;53.376;-6.262;2023-02-11T03:18:44;103245.72;;;7.13;100.00
28167;BME280;15455;53.376;-6.262;2023-02-11T03:21:32;103240.50;;;7.13;100.00
28167;BME280;15455;53.376;-6.262;2023-02-11T03:24:27;103242.94;;;7.10;100.00
28167;BME280;15455;53.376;-6.262;2023-02-11T03:27:38;103241.72;;;7.04;100.00
28167;BME280;15455;53.376;-6.262;2023-02-11T03:30:30;103241.38;;;6.98;100.00
28167;BME280;15455;53.376;-6.262;2023-02-11T03:39:46;103229.41;;;6.83;100.00
28167;BME280;15455;53.376;-6.262;2023-02-11T03:42:39;103226.81;;;6.83;100.00
28167;BME280;15455;53.376;-6.262;2023-02-11T03:45:27;103240.69;;;6.84;100.00
28167;BME280;15455;53.376;-6.262;2023-02-11T03:48:49;103236.38;;;6.84;100.00
28167;BME280;15455;53.376;-6.262;2023-02-11T03:51:37;103238.25;;;6.87;100.00
28167;BME280;15455;53.376;-6.262;2023-02-11T03:54:27;103232.16;;;6.86;100.00
28167;BME280;15455;53.376;-6.262;2023-02-11T03:57:14;103238.16;;;6.85;100.00
28167;BME280;15455;53.376;-6.262;2023-02-11T04:00:00;103244.16;;;6.84;100.00
28167;BME280;15455;53.376;-6.262;2023-02-11T04:02:55;103241.47;;;6.83;100.00
28167;BME280;15455;53.376;-6.262;2023-02-11T04:05:41;103241.47;;;6.83;100.00
28167;BME280;15455;53.376;-6.262;2023-02-11T04:08:26;103243.28;;;6.84;100.00
28167;BME280;15455;53.376;-6.262;2023-02-11T04:11:12;103245.16;;;6.86;100.00
28167;BME280;15455;53.376;-6.262;2023-02-11T04:13:57;103246.91;;;6.87;100.00
28167;BME280;15455;53.376;-6.262;2023-02-11T04:16:43;103250.50;;;6.89;100.00
28167;BME280;15455;53.376;-6.262;2023-02-11T04:19:29;103244.47;;;6.90;100.00
28167;BME280;15455;53.376;-6.262;2023-02-11T04:22:15;103258.28;;;6.89;100.00
28167;BME280;15455;53.376;-6.262;2023-02-11T04:25:00;103258.38;;;6.91;100.00
28167;BME280;15455;53.376;-6.262;2023-02-11T04:27:46;103260.16;;;6.92;100.00
28167;BME280;15455;53.376;-6.262;2023-02-11T04:30:31;103252.44;;;6.93;100.00
28167;BME280;15455;53.376;-6.262;2023-02-11T04:33:17;103256.72;;;6.93;100.00
28167;BME280;15455;53.376;-6.262;2023-02-11T04:36:02;103253.25;;;6.92;100.00
28167;BME280;15455;53.376;-6.262;2023-02-11T04:38:48;103252.44;;;6.93;100.00
28167;BME280;15455;53.376;-6.262;2023-02-11T04:41:33;103257.63;;;6.93;100.00
28167;BME280;15455;53.376;-6.262;2023-02-11T04:44:19;103249.03;;;6.94;100.00
28167;BME280;15455;53.376;-6.262;2023-02-11T04:47:04;103248.28;;;6.97;100.00
28167;BME280;15455;53.376;-6.262;2023-02-11T04:49:50;103257.06;;;6.99;100.00
28167;BME280;15455;53.376;-6.262;2023-02-11T04:52:35;103261.50;;;7.02;100.00
28167;BME280;15455;53.376;-6.262;2023-02-11T04:55:21;103259.75;;;7.01;100.00
28167;BME280;15455;53.376;-6.262;2023-02-11T04:58:06;103255.34;;;7.00;100.00
28167;BME280;15455;53.376;-6.262;2023-02-11T05:00:51;103258.03;;;7.01;100.00
28167;BME280;15455;53.376;-6.262;2023-02-11T05:03:37;103264.09;;;7.02;100.00
28167;BME280;15455;53.376;-6.262;2023-02-11T05:06:23;103261.50;;;7.02;100.00
28167;BME280;15455;53.376;-6.262;2023-02-11T05:09:11;103273.69;;;7.03;100.00
28167;BME280;15455;53.376;-6.262;2023-02-11T05:11:57;103270.28;;;7.04;100.00
28167;BME280;15455;53.376;-6.262;2023-02-11T05:14:42;103266.78;;;7.03;100.00
28167;BME280;15455;53.376;-6.262;2023-02-11T05:17:27;103263.31;;;7.03;100.00
28167;BME280;15455;53.376;-6.262;2023-02-11T05:20:14;103266.72;;;7.02;100.00
28167;BME280;15455;53.376;-6.262;2023-02-11T05:23:00;103267.63;;;7.02;100.00
28167;BME280;15455;53.376;-6.262;2023-02-11T05:25:45;103262.44;;;7.02;100.00
28167;BME280;15455;53.376;-6.262;2023-02-11T05:28:30;103269.38;;;7.03;100.00
28167;BME280;15455;53.376;-6.262;2023-02-11T05:31:16;103259.00;;;7.03;100.00
28167;BME280;15455;53.376;-6.262;2023-02-11T05:34:02;103259.84;;;7.02;100.00
28167;BME280;15455;53.376;-6.262;2023-02-11T05:36:48;103257.22;;;7.02;100.00
28167;BME280;15455;53.376;-6.262;2023-02-11T05:39:33;103259.00;;;7.03;100.00
28167;BME280;15455;53.376;-6.262;2023-02-11T05:42:19;103261.59;;;7.03;100.00
28167;BME280;15455;53.376;-6.262;2023-02-11T05:45:04;103262.50;;;7.04;100.00
28167;BME280;15455;53.376;-6.262;2023-02-11T05:47:50;103264.19;;;7.03;100.00
28167;BME280;15455;53.376;-6.262;2023-02-11T05:50:35;103269.47;;;7.05;100.00
28167;BME280;15455;53.376;-6.262;2023-02-11T05:53:21;103266.78;;;7.03;100.00
28167;BME280;15455;53.376;-6.262;2023-02-11T05:56:07;103258.19;;;7.04;100.00
28167;BME280;15455;53.376;-6.262;2023-02-11T05:58:52;103267.84;;;7.07;100.00
28167;BME280;15455;53.376;-6.262;2023-02-11T06:01:38;103265.25;;;7.07;100.00
28167;BME280;15455;53.376;-6.262;2023-02-11T06:04:23;103267.84;;;7.07;100.00
28167;BME280;15455;53.376;-6.262;2023-02-11T06:07:08;103269.66;;;7.08;100.00
28167;BME280;15455;53.376;-6.262;2023-02-11T06:09:54;103261.03;;;7.09;100.00
28167;BME280;15455;53.376;-6.262;2023-02-11T06:12:39;103264.53;;;7.09;100.00
28167;BME280;15455;53.376;-6.262;2023-02-11T06:15:25;103268.91;;;7.10;100.00
28167;BME280;15455;53.376;-6.262;2023-02-11T06:18:10;103264.69;;;7.12;100.00
28167;BME280;15455;53.376;-6.262;2023-02-11T06:20:55;103259.56;;;7.14;100.00
28167;BME280;15455;53.376;-6.262;2023-02-11T06:23:41;103262.97;;;7.13;100.00
28167;BME280;15455;53.376;-6.262;2023-02-11T06:26:27;103254.38;;;7.14;100.00
28167;BME280;15455;53.376;-6.262;2023-02-11T06:29:13;103250.78;;;7.12;100.00
28167;BME280;15455;53.376;-6.262;2023-02-11T06:31:58;103250.06;;;7.15;100.00
28167;BME280;15455;53.376;-6.262;2023-02-11T06:34:44;103251.88;;;7.16;100.00
28167;BME280;15455;53.376;-6.262;2023-02-11T06:37:30;103251.06;;;7.17;100.00
28167;BME280;15455;53.376;-6.262;2023-02-11T06:40:15;103251.94;;;7.17;100.00
28167;BME280;15455;53.376;-6.262;2023-02-11T06:43:01;103255.59;;;7.21;100.00
28167;BME280;15455;53.376;-6.262;2023-02-11T06:45:54;103243.34;;;7.18;100.00
28167;BME280;15455;53.376;-6.262;2023-02-11T06:48:39;103238.22;;;7.20;100.00
28167;BME280;15455;53.376;-6.262;2023-02-11T06:51:28;103237.44;;;7.21;100.00
28167;BME280;15455;53.376;-6.262;2023-02-11T06:54:14;103245.28;;;7.22;100.00
28167;BME280;15455;53.376;-6.262;2023-02-11T06:56:59;103240.03;;;7.21;100.00
28167;BME280;15455;53.376;-6.262;2023-02-11T06:59:46;103244.47;;;7.23;100.00
28167;BME280;15455;53.376;-6.262;2023-02-11T07:02:31;103242.78;;;7.24;100.00
28167;BME280;15455;53.376;-6.262;2023-02-11T07:05:16;103236.75;;;7.25;100.00
28167;BME280;15455;53.376;-6.262;2023-02-11T07:08:02;103248.94;;;7.26;100.00
28167;BME280;15455;53.376;-6.262;2023-02-11T07:10:47;103242.00;;;7.26;100.00
28167;BME280;15455;53.376;-6.262;2023-02-11T07:13:32;103238.63;;;7.27;100.00
28167;BME280;15455;53.376;-6.262;2023-02-11T07:16:18;103246.47;;;7.29;100.00
28167;BME280;15455;53.376;-6.262;2023-02-11T07:19:04;103240.47;;;7.30;100.00
28167;BME280;15455;53.376;-6.262;2023-02-11T07:21:51;103243.97;;;7.30;100.00
28167;BME280;15455;53.376;-6.262;2023-02-11T07:24:36;103231.97;;;7.33;100.00
28167;BME280;15455;53.376;-6.262;2023-02-11T07:27:21;103226.84;;;7.34;100.00
28167;BME280;15455;53.376;-6.262;2023-02-11T07:30:08;103235.66;;;7.38;100.00
28167;BME280;15455;53.376;-6.262;2023-02-11T07:32:55;103238.34;;;7.39;100.00
28167;BME280;15455;53.376;-6.262;2023-02-11T07:35:40;103240.06;;;7.39;100.00
28167;BME280;15455;53.376;-6.262;2023-02-11T07:38:27;103241.94;;;7.41;100.00
28167;BME280;15455;53.376;-6.262;2023-02-11T07:41:15;103237.69;;;7.43;100.00
28167;BME280;15455;53.376;-6.262;2023-02-11T07:44:01;103235.09;;;7.43;100.00
28167;BME280;15455;53.376;-6.262;2023-02-11T07:46:47;103239.41;;;7.43;100.00
28167;BME280;15455;53.376;-6.262;2023-02-11T07:49:33;103242.16;;;7.46;100.00
28167;BME280;15455;53.376;-6.262;2023-02-11T07:52:18;103250.09;;;7.49;100.00
28167;BME280;15455;53.376;-6.262;2023-02-11T07:55:04;103239.78;;;7.51;100.00
28167;BME280;15455;53.376;-6.262;2023-02-11T07:57:50;103238.81;;;7.48;100.00
28167;BME280;15455;53.376;-6.262;2023-02-11T08:00:35;103241.50;;;7.50;100.00
28167;BME280;15455;53.376;-6.262;2023-02-11T08:03:21;103245.06;;;7.52;100.00
28167;BME280;15455;53.376;-6.262;2023-02-11T08:06:09;103239.84;;;7.52;100.00
28167;BME280;15455;53.376;-6.262;2023-02-11T08:08:55;103245.06;;;7.52;100.00
28167;BME280;15455;53.376;-6.262;2023-02-11T08:11:41;103239.84;;;7.52;100.00
28167;BME280;15455;53.376;-6.262;2023-02-11T08:14:27;103244.25;;;7.53;100.00
28167;BME280;15455;53.376;-6.262;2023-02-11T08:17:12;103240.09;;;7.57;100.00
28167;BME280;15455;53.376;-6.262;2023-02-11T08:19:58;103232.47;;;7.60;100.00
28167;BME280;15455;53.376;-6.262;2023-02-11T08:22:43;103239.56;;;7.64;100.00
28167;BME280;15455;53.376;-6.262;2023-02-11T08:25:28;103242.34;;;7.67;100.00
28167;BME280;15455;53.376;-6.262;2023-02-11T08:28:14;103239.91;;;7.70;100.00
28167;BME280;15455;53.376;-6.262;2023-02-11T08:31:07;103238.19;;;7.71;100.00
28167;BME280;15455;53.376;-6.262;2023-02-11T08:33:53;103240.06;;;7.73;100.00
28167;BME280;15455;53.376;-6.262;2023-02-11T08:36:41;103242.78;;;7.76;100.00
28167;BME280;15455;53.376;-6.262;2023-02-11T08:39:27;103251.56;;;7.78;100.00
28167;BME280;15455;53.376;-6.262;2023-02-11T08:42:13;103261.13;;;7.79;100.00
28167;BME280;15455;53.376;-6.262;2023-02-11T08:44:59;103258.53;;;7.79;100.00
28167;BME280;15455;53.376;-6.262;2023-02-11T08:47:45;103259.53;;;7.81;100.00
28167;BME280;15455;53.376;-6.262;2023-02-11T08:50:30;103259.69;;;7.85;100.00
28167;BME280;15455;53.376;-6.262;2023-02-11T08:53:16;103262.34;;;7.86;100.00
28167;BME280;15455;53.376;-6.262;2023-02-11T08:56:02;103263.44;;;7.91;100.00
28167;BME280;15455;53.376;-6.262;2023-02-11T08:58:48;103267.03;;;7.93;100.00
28167;BME280;15455;53.376;-6.262;2023-02-11T09:01:34;103270.72;;;7.98;100.00
28167;BME280;15455;53.376;-6.262;2023-02-11T09:04:19;103281.13;;;7.98;100.00
28167;BME280;15455;53.376;-6.262;2023-02-11T09:07:05;103277.88;;;8.03;100.00
28167;BME280;15455;53.376;-6.262;2023-02-11T09:09:51;103274.53;;;8.05;100.00
28167;BME280;15455;53.376;-6.262;2023-02-11T09:12:37;103274.59;;;8.07;100.00
28167;BME280;15455;53.376;-6.262;2023-02-11T09:15:22;103278.16;;;8.09;100.00
28167;BME280;15455;53.376;-6.262;2023-02-11T09:18:07;103280.16;;;8.14;100.00
28167;BME280;15455;53.376;-6.262;2023-02-11T09:21:04;103285.56;;;8.17;100.00
28167;BME280;15455;53.376;-6.262;2023-02-11T09:23:49;103292.72;;;8.23;100.00
28167;BME280;15455;53.376;-6.262;2023-02-11T09:26:36;103300.72;;;8.26;100.00
28167;BME280;15455;53.376;-6.262;2023-02-11T09:29:21;103292.31;;;8.32;100.00
28167;BME280;15455;53.376;-6.262;2023-02-11T09:32:07;103295.88;;;8.34;100.00
28167;BME280;15455;53.376;-6.262;2023-02-11T09:34:54;103292.53;;;8.37;100.00
28167;BME280;15455;53.376;-6.262;2023-02-11T09:37:39;103290.94;;;8.40;100.00
28167;BME280;15455;53.376;-6.262;2023-02-11T09:40:25;103298.91;;;8.43;100.00
28167;BME280;15455;53.376;-6.262;2023-02-11T09:43:21;103302.59;;;8.47;100.00
28167;BME280;15455;53.376;-6.262;2023-02-11T09:46:12;103301.91;;;8.51;100.00
28167;BME280;15455;53.376;-6.262;2023-02-11T09:48:59;103309.13;;;8.57;100.00
28167;BME280;15455;53.376;-6.262;2023-02-11T09:52:28;103305.91;;;8.62;100.00
28167;BME280;15455;53.376;-6.262;2023-02-11T09:58:13;103308.94;;;8.72;100.00
28167;BME280;15455;53.376;-6.262;2023-02-11T10:10:32;103315.94;;;8.73;100.00
28167;BME280;15455;53.376;-6.262;2023-02-11T10:13:42;103316.97;;;8.76;100.00
28167;BME280;15455;53.376;-6.262;2023-02-11T10:22:36;103307.19;;;8.90;100.00
28167;BME280;15455;53.376;-6.262;2023-02-11T10:28:17;103317.88;;;8.96;100.00
28167;BME280;15455;53.376;-6.262;2023-02-11T10:31:09;103323.28;;;9.01;100.00
28167;BME280;15455;53.376;-6.262;2023-02-11T10:34:03;103315.78;;;9.07;100.00
28167;BME280;15455;53.376;-6.262;2023-02-11T10:36:50;103319.47;;;9.12;100.00
28167;BME280;15455;53.376;-6.262;2023-02-11T10:39:35;103331.13;;;9.20;100.00
28167;BME280;15455;53.376;-6.262;2023-02-11T10:42:21;103332.16;;;9.24;100.00
28167;BME280;15455;53.376;-6.262;2023-02-11T10:45:15;103326.19;;;9.27;100.00
28167;BME280;15455;53.376;-6.262;2023-02-11T10:48:34;103322.97;;;9.32;100.00
28167;BME280;15455;53.376;-6.262;2023-02-11T10:51:21;103326.69;;;9.37;100.00
28167;BME280;15455;53.376;-6.262;2023-02-11T10:56:58;103321.59;;;9.41;100.00
28167;BME280;15455;53.376;-6.262;2023-02-11T10:59:44;103310.50;;;9.45;100.00
28167;BME280;15455;53.376;-6.262;2023-02-11T11:02:32;103319.31;;;9.48;100.00
28167;BME280;15455;53.376;-6.262;2023-02-11T11:05:25;103315.03;;;9.50;100.00
28167;BME280;15455;53.376;-6.262;2023-02-11T11:08:12;103304.84;;;9.55;100.00
28167;BME280;15455;53.376;-6.262;2023-02-11T11:11:04;103304.16;;;9.59;100.00
28167;BME280;15455;53.376;-6.262;2023-02-11T11:16:51;103304.59;;;9.70;100.00
28167;BME280;15455;53.376;-6.262;2023-02-11T11:19:38;103303.91;;;9.74;100.00
28167;BME280;15455;53.376;-6.262;2023-02-11T11:22:23;103298.88;;;9.79;100.00
28167;BME280;15455;53.376;-6.262;2023-02-11T11:25:28;103307.75;;;9.82;100.00
28167;BME280;15455;53.376;-6.262;2023-02-11T11:28:21;103314.94;;;9.88;100.00
28167;BME280;15455;53.376;-6.262;2023-02-11T11:37:12;103308.41;;;9.99;100.00
28167;BME280;15455;53.376;-6.262;2023-02-11T11:40:09;103296.47;;;10.04;100.00
28167;BME280;15455;53.376;-6.262;2023-02-11T11:45:59;103292.00;;;10.23;100.00
28167;BME280;15455;53.376;-6.262;2023-02-11T11:48:49;103290.75;;;10.34;100.00
28167;BME280;15455;53.376;-6.262;2023-02-11T11:51:37;103285.75;;;10.40;100.00
28167;BME280;15455;53.376;-6.262;2023-02-11T11:54:26;103286.94;;;10.49;100.00
28167;BME280;15455;53.376;-6.262;2023-02-11T11:57:21;103285.97;;;10.47;100.00
28167;BME280;15455;53.376;-6.262;2023-02-11T12:00:19;103287.88;;;10.51;100.00
28167;BME280;15455;53.376;-6.262;2023-02-11T12:06:14;103274.22;;;10.58;100.00
28167;BME280;15455;53.376;-6.262;2023-02-11T12:09:15;103270.09;;;10.63;100.00
28167;BME280;15455;53.376;-6.262;2023-02-11T12:25:19;103258.13;;;10.70;100.00
28167;BME280;15455;53.376;-6.262;2023-02-11T12:31:41;103261.28;;;10.84;100.00
28167;BME280;15455;53.376;-6.262;2023-02-11T12:43:54;103255.69;;;10.74;100.00
28167;BME280;15455;53.376;-6.262;2023-02-11T12:46:48;103259.97;;;10.72;100.00
28167;BME280;15455;53.376;-6.262;2023-02-11T12:49:47;103266.78;;;10.69;100.00
28167;BME280;15455;53.376;-6.262;2023-02-11T12:52:47;103266.03;;;10.71;100.00
28167;BME280;15455;53.376;-6.262;2023-02-11T12:55:39;103260.59;;;10.65;100.00
28167;BME280;15455;53.376;-6.262;2023-02-11T12:58:27;103260.41;;;10.60;100.00
28167;BME280;15455;53.376;-6.262;2023-02-11T13:01:38;103263.72;;;10.56;100.00
28167;BME280;15455;53.376;-6.262;2023-02-11T13:04:28;103253.28;;;10.56;100.00
28167;BME280;15455;53.376;-6.262;2023-02-11T13:07:27;103249.81;;;10.56;100.00
28167;BME280;15455;53.376;-6.262;2023-02-11T13:10:27;103248.88;;;10.55;100.00
28167;BME280;15455;53.376;-6.262;2023-02-11T13:19:37;103253.06;;;10.50;100.00
28167;BME280;15455;53.376;-6.262;2023-02-11T13:22:40;103255.47;;;10.46;100.00
28167;BME280;15455;53.376;-6.262;2023-02-11T13:25:33;103252.63;;;10.39;100.00
28167;BME280;15455;53.376;-6.262;2023-02-11T13:28:50;103261.44;;;10.41;100.00
28167;BME280;15455;53.376;-6.262;2023-02-11T13:31:38;103259.69;;;10.42;100.00
28167;BME280;15455;53.376;-6.262;2023-02-11T13:35:15;103257.03;;;10.40;100.00
28167;BME280;15455;53.376;-6.262;2023-02-11T13:37:35;103257.91;;;10.41;100.00
28167;BME280;15455;53.376;-6.262;2023-02-11T13:40:43;103262.31;;;10.42;100.00
28167;BME280;15455;53.376;-6.262;2023-02-11T13:43:31;103257.03;;;10.40;100.00
28167;BME280;15455;53.376;-6.262;2023-02-11T13:46:17;103251.00;;;10.41;100.00
28167;BME280;15455;53.376;-6.262;2023-02-11T13:49:04;103250.84;;;10.38;100.00
28167;BME280;15455;53.376;-6.262;2023-02-11T13:51:50;103240.50;;;10.40;100.00
28167;BME280;15455;53.376;-6.262;2023-02-11T13:54:37;103243.28;;;10.45;100.00
28167;BME280;15455;53.376;-6.262;2023-02-11T13:57:31;103242.56;;;10.49;100.00
28167;BME280;15455;53.376;-6.262;2023-02-11T14:03:35;103225.69;;;10.63;100.00
28167;BME280;15455;53.376;-6.262;2023-02-11T14:07:32;103226.06;;;10.74;100.00
28167;BME280;15455;53.376;-6.262;2023-02-11T14:13:32;103216.91;;;10.85;100.00
28167;BME280;15455;53.376;-6.262;2023-02-11T14:16:20;103212.56;;;10.86;100.00
28167;BME280;15455;53.376;-6.262;2023-02-11T14:25:04;103194.69;;;10.97;100.00
28167;BME280;15455;53.376;-6.262;2023-02-11T14:28:10;103192.06;;;10.97;100.00
28167;BME280;15455;53.376;-6.262;2023-02-11T14:31:09;103197.44;;;11.01;100.00
28167;BME280;15455;53.376;-6.262;2023-02-11T14:34:05;103196.56;;;11.01;100.00
28167;BME280;15455;53.376;-6.262;2023-02-11T14:37:13;103186.94;;;11.00;100.00
28167;BME280;15455;53.376;-6.262;2023-02-11T14:42:56;103189.28;;;10.92;100.00
28167;BME280;15455;53.376;-6.262;2023-02-11T14:45:50;103188.44;;;10.93;100.00
28167;BME280;15455;53.376;-6.262;2023-02-11T14:48:43;103192.78;;;10.92;100.00
28167;BME280;15455;53.376;-6.262;2023-02-11T14:51:34;103193.56;;;10.90;100.00
28167;BME280;15455;53.376;-6.262;2023-02-11T14:54:23;103187.34;;;10.86;100.00
28167;BME280;15455;53.376;-6.262;2023-02-11T14:57:16;103189.91;;;10.85;100.00
28167;BME280;15455;53.376;-6.262;2023-02-11T15:00:17;103190.63;;;10.81;100.00
28167;BME280;15455;53.376;-6.262;2023-02-11T15:03:04;103194.06;;;10.80;100.00
28167;BME280;15455;53.376;-6.262;2023-02-11T15:08:55;103198.97;;;10.70;100.00
28167;BME280;15455;53.376;-6.262;2023-02-11T15:11:44;103194.34;;;10.63;100.00
28167;BME280;15455;53.376;-6.262;2023-02-11T15:14:32;103194.09;;;10.57;100.00
28167;BME280;15455;53.376;-6.262;2023-02-11T15:17:26;103201.78;;;10.52;100.00
28167;BME280;15455;53.376;-6.262;2023-02-11T15:20:25;103197.22;;;10.47;100.00
28167;BME280;15455;53.376;-6.262;2023-02-11T15:23:21;103193.41;;;10.38;100.00
28167;BME280;15455;53.376;-6.262;2023-02-11T15:26:19;103196.41;;;10.26;100.00
28167;BME280;15455;53.376;-6.262;2023-02-11T15:29:15;103198.03;;;10.23;100.00
28167;BME280;15455;53.376;-6.262;2023-02-11T15:32:06;103199.56;;;10.18;100.00
28167;BME280;15455;53.376;-6.262;2023-02-11T15:34:56;103199.44;;;10.15;100.00
28167;BME280;15455;53.376;-6.262;2023-02-11T15:37:43;103207.22;;;10.13;100.00
28167;BME280;15455;53.376;-6.262;2023-02-11T15:40:31;103198.47;;;10.11;100.00
28167;BME280;15455;53.376;-6.262;2023-02-11T15:43:17;103198.47;;;10.11;100.00
28167;BME280;15455;53.376;-6.262;2023-02-11T15:46:02;103200.16;;;10.11;100.00
28167;BME280;15455;53.376;-6.262;2023-02-11T15:48:52;103206.88;;;10.04;100.00
28167;BME280;15455;53.376;-6.262;2023-02-11T15:51:39;103204.00;;;9.98;100.00
28167;BME280;15455;53.376;-6.262;2023-02-11T15:54:29;103198.66;;;9.95;100.00
28167;BME280;15455;53.376;-6.262;2023-02-11T15:57:16;103207.25;;;9.92;100.00
28167;BME280;15455;53.376;-6.262;2023-02-11T16:00:02;103207.06;;;9.87;100.00
28167;BME280;15455;53.376;-6.262;2023-02-11T16:02:55;103207.00;;;9.86;100.00
28167;BME280;15455;53.376;-6.262;2023-02-11T16:05:41;103207.66;;;9.80;100.00
28167;BME280;15455;53.376;-6.262;2023-02-11T16:08:27;103210.91;;;9.74;100.00
28167;BME280;15455;53.376;-6.262;2023-02-11T16:11:31;103213.31;;;9.70;100.00
28167;BME280;15455;53.376;-6.262;2023-02-11T16:17:22;103209.50;;;9.62;100.00
28167;BME280;15455;53.376;-6.262;2023-02-11T16:20:18;103212.91;;;9.59;100.00
28167;BME280;15455;53.376;-6.262;2023-02-11T16:23:05;103208.38;;;9.55;100.00
28167;BME280;15455;53.376;-6.262;2023-02-11T16:26:58;103214.28;;;9.51;100.00
28167;BME280;15455;53.376;-6.262;2023-02-11T16:29:16;103211.63;;;9.49;100.00
28167;BME280;15455;53.376;-6.262;2023-02-11T16:32:15;103213.97;;;9.43;100.00